WZZ20VH EPWA-LIMJ
Flight info
| Callsign | WZZ20VH |
|---|---|
| Flight time | 1h 47m |
| Altitude | 38000 |
| Route | EVINA N744 NAVUR DCT BAVOK DCT DETSA/N0452F370 DCT DIBAX DCT TAGIP DCT NESTI DCT OSKOR DCT PIKOT |
| Aircraft | A321/M-SDE2E3FGHIJ1RWXY/LB1 |
Departure
| Time | 2026-04-14 08:42 |
|---|---|
| Airport | Warsaw Chopin Airport (EPWA) |
Arrival
| Time | 2026-04-14 10:29 |
|---|---|
| Airport | Genoa Cristoforo Colombo Airport (LIMJ) |
| Time | Latitude | Longitude | Altitude | Speed | Heading |
|---|---|---|---|---|---|
| 2026-04-14 07:59 | 52.17544 | 20.96902 | 339 ft | 0 kts | 242° |
| 2026-04-14 08:32 | 52.17545 | 20.96903 | 339 ft | 1 kts | 242° |
| 2026-04-14 08:33 | 52.17551 | 20.96923 | 334 ft | 3 kts | 242° |
| 2026-04-14 08:33 | 52.17561 | 20.96952 | 333 ft | 3 kts | 242° |
| 2026-04-14 08:33 | 52.17569 | 20.96977 | 335 ft | 3 kts | 274° |
| 2026-04-14 08:33 | 52.17563 | 20.96998 | 333 ft | 3 kts | 328° |
| 2026-04-14 08:34 | 52.17553 | 20.97007 | 334 ft | 2 kts | 332° |
| 2026-04-14 08:34 | 52.17543 | 20.97016 | 333 ft | 0 kts | 332° |
| 2026-04-14 08:36 | 52.17545 | 20.97014 | 333 ft | 1 kts | 332° |
| 2026-04-14 08:36 | 52.17559 | 20.97002 | 333 ft | 3 kts | 332° |
| 2026-04-14 08:37 | 52.17584 | 20.96980 | 334 ft | 5 kts | 332° |
| 2026-04-14 08:37 | 52.17617 | 20.96941 | 336 ft | 7 kts | 303° |
| 2026-04-14 08:37 | 52.17620 | 20.96883 | 338 ft | 9 kts | 255° |
| 2026-04-14 08:37 | 52.17581 | 20.96770 | 336 ft | 13 kts | 238° |
| 2026-04-14 08:38 | 52.17531 | 20.96634 | 337 ft | 14 kts | 239° |
| 2026-04-14 08:38 | 52.17468 | 20.96502 | 337 ft | 15 kts | 239° |
| 2026-04-14 08:38 | 52.17447 | 20.96366 | 339 ft | 11 kts | 296° |
| 2026-04-14 08:38 | 52.17537 | 20.96268 | 339 ft | 12 kts | 332° |
| 2026-04-14 08:39 | 52.17578 | 20.96202 | 336 ft | 13 kts | 293° |
| 2026-04-14 08:39 | 52.17556 | 20.96074 | 336 ft | 12 kts | 217° |
| 2026-04-14 08:39 | 52.17479 | 20.96008 | 336 ft | 13 kts | 211° |
| 2026-04-14 08:39 | 52.17434 | 20.95962 | 335 ft | 5 kts | 182° |
| 2026-04-14 08:40 | 52.17413 | 20.95976 | 338 ft | 0 kts | 150° |
| 2026-04-14 08:41 | 52.17300 | 20.96077 | 337 ft | 52 kts | 152° |
| 2026-04-14 08:41 | 52.16773 | 20.96537 | 337 ft | 119 kts | 152° |
| 2026-04-14 08:41 | 52.15887 | 20.97318 | 468 ft | 160 kts | 148° |
| 2026-04-14 08:42 | 52.14909 | 20.98176 | 1242 ft | 159 kts | 148° |
| 2026-04-14 08:42 | 52.13941 | 20.99020 | 2039 ft | 157 kts | 148° |
| 2026-04-14 08:42 | 52.12966 | 20.99873 | 2654 ft | 161 kts | 149° |
| 2026-04-14 08:42 | 52.11918 | 21.00556 | 3255 ft | 170 kts | 170° |
| 2026-04-14 08:43 | 52.10718 | 21.00091 | 3776 ft | 191 kts | 204° |
| 2026-04-14 08:43 | 52.09545 | 20.98875 | 4100 ft | 210 kts | 208° |
| 2026-04-14 08:43 | 52.08251 | 20.97503 | 4478 ft | 230 kts | 210° |
| 2026-04-14 08:43 | 52.06890 | 20.96040 | 5173 ft | 238 kts | 211° |
| 2026-04-14 08:44 | 52.05507 | 20.94493 | 5864 ft | 247 kts | 216° |
| 2026-04-14 08:44 | 52.04185 | 20.92646 | 6605 ft | 254 kts | 218° |
| 2026-04-14 08:44 | 52.02833 | 20.90728 | 7219 ft | 262 kts | 219° |
| 2026-04-14 08:44 | 52.01460 | 20.88752 | 7950 ft | 266 kts | 220° |
| 2026-04-14 08:45 | 52.00071 | 20.86747 | 8760 ft | 268 kts | 221° |
| 2026-04-14 08:45 | 51.98656 | 20.84726 | 9483 ft | 273 kts | 221° |
| 2026-04-14 08:45 | 51.97216 | 20.82680 | 10224 ft | 277 kts | 221° |
| 2026-04-14 08:45 | 51.95734 | 20.80571 | 10701 ft | 290 kts | 222° |
| 2026-04-14 08:46 | 51.94186 | 20.78367 | 11148 ft | 303 kts | 222° |
| 2026-04-14 08:46 | 51.92575 | 20.76075 | 11617 ft | 314 kts | 223° |
| 2026-04-14 08:46 | 51.90900 | 20.73697 | 12084 ft | 326 kts | 223° |
| 2026-04-14 08:46 | 51.89169 | 20.71239 | 12529 ft | 336 kts | 223° |
| 2026-04-14 08:47 | 51.87391 | 20.68722 | 13017 ft | 343 kts | 222° |
| 2026-04-14 08:47 | 51.85585 | 20.66181 | 13715 ft | 345 kts | 223° |
| 2026-04-14 08:47 | 51.83766 | 20.63629 | 14369 ft | 347 kts | 223° |
| 2026-04-14 08:47 | 51.81933 | 20.61063 | 15004 ft | 350 kts | 223° |
| 2026-04-14 08:48 | 51.80082 | 20.58475 | 15606 ft | 353 kts | 223° |
| 2026-04-14 08:48 | 51.78224 | 20.55880 | 16179 ft | 357 kts | 223° |
| 2026-04-14 08:48 | 51.76338 | 20.53247 | 16795 ft | 360 kts | 223° |
| 2026-04-14 08:48 | 51.74432 | 20.50591 | 17404 ft | 363 kts | 223° |
| 2026-04-14 08:49 | 51.72510 | 20.47923 | 18002 ft | 366 kts | 223° |
| 2026-04-14 08:49 | 51.70572 | 20.45234 | 18597 ft | 369 kts | 223° |
| 2026-04-14 08:49 | 51.68621 | 20.42522 | 19108 ft | 372 kts | 223° |
| 2026-04-14 08:49 | 51.66655 | 20.39786 | 19624 ft | 375 kts | 223° |
| 2026-04-14 08:50 | 51.64669 | 20.37027 | 20136 ft | 378 kts | 223° |
| 2026-04-14 08:50 | 51.62666 | 20.34254 | 20651 ft | 381 kts | 223° |
| 2026-04-14 08:50 | 51.60645 | 20.31460 | 21169 ft | 385 kts | 223° |
| 2026-04-14 08:50 | 51.58608 | 20.28646 | 21677 ft | 388 kts | 223° |
| 2026-04-14 08:51 | 51.56553 | 20.25810 | 22175 ft | 391 kts | 223° |
| 2026-04-14 08:51 | 51.54506 | 20.22985 | 22658 ft | 394 kts | 223° |
| 2026-04-14 08:51 | 51.52419 | 20.20106 | 23136 ft | 397 kts | 223° |
| 2026-04-14 08:51 | 51.50314 | 20.17208 | 23603 ft | 400 kts | 223° |
| 2026-04-14 08:52 | 51.48192 | 20.14291 | 23984 ft | 403 kts | 223° |
| 2026-04-14 08:52 | 51.46052 | 20.11361 | 24361 ft | 406 kts | 222° |
| 2026-04-14 08:52 | 51.43893 | 20.08415 | 24752 ft | 408 kts | 222° |
| 2026-04-14 08:52 | 51.41724 | 20.05458 | 25142 ft | 411 kts | 222° |
| 2026-04-14 08:53 | 51.39545 | 20.02482 | 25511 ft | 413 kts | 222° |
| 2026-04-14 08:53 | 51.37355 | 19.99487 | 25898 ft | 415 kts | 222° |
| 2026-04-14 08:53 | 51.35150 | 19.96480 | 26301 ft | 417 kts | 222° |
| 2026-04-14 08:53 | 51.32937 | 19.93469 | 26689 ft | 419 kts | 221° |
| 2026-04-14 08:54 | 51.30712 | 19.90445 | 27063 ft | 421 kts | 221° |
| 2026-04-14 08:54 | 51.28475 | 19.87409 | 27415 ft | 423 kts | 221° |
| 2026-04-14 08:54 | 51.26222 | 19.84362 | 27778 ft | 426 kts | 221° |
| 2026-04-14 08:54 | 51.23953 | 19.81303 | 28121 ft | 427 kts | 221° |
| 2026-04-14 08:55 | 51.21677 | 19.78234 | 28477 ft | 430 kts | 221° |
| 2026-04-14 08:55 | 51.19391 | 19.75146 | 28814 ft | 432 kts | 221° |
| 2026-04-14 08:55 | 51.17091 | 19.72036 | 29159 ft | 434 kts | 221° |
| 2026-04-14 08:55 | 51.14784 | 19.68918 | 29500 ft | 436 kts | 221° |
| 2026-04-14 08:56 | 51.12462 | 19.65793 | 29812 ft | 438 kts | 221° |
| 2026-04-14 08:56 | 51.10127 | 19.62657 | 30137 ft | 440 kts | 221° |
| 2026-04-14 08:56 | 51.07783 | 19.59507 | 30428 ft | 442 kts | 221° |
| 2026-04-14 08:56 | 51.05423 | 19.56343 | 30738 ft | 444 kts | 221° |
| 2026-04-14 08:57 | 51.03058 | 19.53173 | 31067 ft | 445 kts | 221° |
| 2026-04-14 08:57 | 51.00693 | 19.50012 | 31461 ft | 444 kts | 220° |
| 2026-04-14 08:57 | 50.98366 | 19.46902 | 31857 ft | 443 kts | 220° |
| 2026-04-14 08:57 | 50.95979 | 19.43711 | 32251 ft | 442 kts | 220° |
| 2026-04-14 08:58 | 50.93663 | 19.40618 | 32632 ft | 441 kts | 220° |
| 2026-04-14 08:58 | 50.91320 | 19.37494 | 33021 ft | 440 kts | 220° |
| 2026-04-14 08:58 | 50.88980 | 19.34384 | 33391 ft | 439 kts | 220° |
| 2026-04-14 08:58 | 50.86639 | 19.31284 | 33778 ft | 438 kts | 220° |
| 2026-04-14 08:59 | 50.84306 | 19.28198 | 34137 ft | 437 kts | 220° |
| 2026-04-14 08:59 | 50.81978 | 19.25117 | 34457 ft | 436 kts | 220° |
| 2026-04-14 08:59 | 50.79655 | 19.22038 | 34744 ft | 436 kts | 220° |
| 2026-04-14 08:59 | 50.77326 | 19.18962 | 35037 ft | 436 kts | 220° |
| 2026-04-14 09:00 | 50.74999 | 19.15899 | 35317 ft | 435 kts | 220° |
| 2026-04-14 09:00 | 50.72674 | 19.12840 | 35600 ft | 435 kts | 220° |
| 2026-04-14 09:00 | 50.70350 | 19.09785 | 35875 ft | 435 kts | 220° |
| 2026-04-14 09:00 | 50.68025 | 19.06734 | 36176 ft | 434 kts | 219° |
| 2026-04-14 09:01 | 50.65708 | 19.03696 | 36468 ft | 433 kts | 219° |
| 2026-04-14 09:01 | 50.63391 | 19.00663 | 36726 ft | 433 kts | 219° |
| 2026-04-14 09:01 | 50.61072 | 18.97626 | 36958 ft | 433 kts | 219° |
| 2026-04-14 09:01 | 50.58754 | 18.94597 | 37187 ft | 433 kts | 219° |
| 2026-04-14 09:02 | 50.56436 | 18.91571 | 37408 ft | 433 kts | 219° |
| 2026-04-14 09:02 | 50.54117 | 18.88547 | 37616 ft | 433 kts | 219° |
| 2026-04-14 09:02 | 50.51792 | 18.85523 | 37827 ft | 433 kts | 219° |
| 2026-04-14 09:02 | 50.49470 | 18.82512 | 38037 ft | 433 kts | 219° |
| 2026-04-14 09:03 | 50.44810 | 18.76477 | 38138 ft | 435 kts | 219° |
| 2026-04-14 09:03 | 50.40161 | 18.70473 | 38135 ft | 436 kts | 219° |
| 2026-04-14 09:04 | 50.35481 | 18.64446 | 38135 ft | 436 kts | 219° |
| 2026-04-14 09:04 | 50.30797 | 18.58422 | 38131 ft | 436 kts | 219° |
| 2026-04-14 09:05 | 50.26105 | 18.52395 | 38131 ft | 437 kts | 219° |
| 2026-04-14 09:05 | 50.21398 | 18.46348 | 38133 ft | 438 kts | 219° |
| 2026-04-14 09:06 | 50.16675 | 18.40324 | 38148 ft | 439 kts | 218° |
| 2026-04-14 09:06 | 50.11943 | 18.34308 | 38148 ft | 439 kts | 218° |
| 2026-04-14 09:07 | 50.07201 | 18.28290 | 38142 ft | 440 kts | 218° |
| 2026-04-14 09:07 | 50.02456 | 18.22284 | 38143 ft | 440 kts | 218° |
| 2026-04-14 09:08 | 49.98268 | 18.15377 | 38145 ft | 441 kts | 232° |
| 2026-04-14 09:08 | 49.94591 | 18.07755 | 38146 ft | 441 kts | 232° |
| 2026-04-14 09:09 | 49.90886 | 18.00154 | 38138 ft | 441 kts | 232° |
| 2026-04-14 09:09 | 49.87180 | 17.92561 | 38139 ft | 442 kts | 232° |
| 2026-04-14 09:10 | 49.83465 | 17.84979 | 38139 ft | 442 kts | 232° |
| 2026-04-14 09:10 | 49.79771 | 17.77454 | 38145 ft | 442 kts | 232° |
| 2026-04-14 09:11 | 49.76050 | 17.69886 | 38141 ft | 442 kts | 232° |
| 2026-04-14 09:11 | 49.72331 | 17.62330 | 38140 ft | 442 kts | 232° |
| 2026-04-14 09:12 | 49.68601 | 17.54789 | 38134 ft | 441 kts | 232° |
| 2026-04-14 09:12 | 49.64871 | 17.47268 | 38133 ft | 441 kts | 232° |
| 2026-04-14 09:13 | 49.61138 | 17.39764 | 38132 ft | 441 kts | 232° |
| 2026-04-14 09:13 | 49.57398 | 17.32264 | 38132 ft | 441 kts | 232° |
| 2026-04-14 09:14 | 49.53662 | 17.24788 | 38136 ft | 440 kts | 232° |
| 2026-04-14 09:14 | 49.49915 | 17.17335 | 38131 ft | 440 kts | 232° |
| 2026-04-14 09:15 | 49.46175 | 17.09905 | 38127 ft | 439 kts | 232° |
| 2026-04-14 09:15 | 49.42460 | 17.02537 | 38127 ft | 439 kts | 232° |
| 2026-04-14 09:16 | 49.38712 | 16.95128 | 38127 ft | 439 kts | 231° |
| 2026-04-14 09:16 | 49.34963 | 16.87730 | 38124 ft | 439 kts | 231° |
| 2026-04-14 09:17 | 49.31213 | 16.80356 | 38126 ft | 438 kts | 231° |
| 2026-04-14 09:17 | 49.27462 | 16.72991 | 38126 ft | 438 kts | 231° |
| 2026-04-14 09:18 | 49.23709 | 16.65649 | 38131 ft | 438 kts | 231° |
| 2026-04-14 09:18 | 49.19947 | 16.58316 | 38142 ft | 438 kts | 231° |
| 2026-04-14 09:19 | 49.16185 | 16.51009 | 38135 ft | 437 kts | 231° |
| 2026-04-14 09:19 | 49.12449 | 16.43769 | 38131 ft | 437 kts | 231° |
| 2026-04-14 09:20 | 49.08684 | 16.36486 | 38134 ft | 437 kts | 231° |
| 2026-04-14 09:20 | 49.04916 | 16.29218 | 38133 ft | 437 kts | 231° |
| 2026-04-14 09:21 | 49.01139 | 16.21966 | 38127 ft | 437 kts | 231° |
| 2026-04-14 09:21 | 48.97357 | 16.14721 | 38129 ft | 437 kts | 231° |
| 2026-04-14 09:22 | 48.93571 | 16.07475 | 38130 ft | 437 kts | 231° |
| 2026-04-14 09:22 | 48.89783 | 16.00234 | 38131 ft | 437 kts | 231° |
| 2026-04-14 09:23 | 48.85990 | 15.93015 | 38141 ft | 437 kts | 231° |
| 2026-04-14 09:23 | 48.82190 | 15.85810 | 38140 ft | 437 kts | 231° |
| 2026-04-14 09:24 | 48.78383 | 15.78615 | 38137 ft | 437 kts | 230° |
| 2026-04-14 09:24 | 48.74576 | 15.71441 | 38137 ft | 437 kts | 230° |
| 2026-04-14 09:25 | 48.70765 | 15.64276 | 38137 ft | 437 kts | 230° |
| 2026-04-14 09:25 | 48.66949 | 15.57120 | 38139 ft | 436 kts | 230° |
| 2026-04-14 09:26 | 48.63144 | 15.49982 | 38141 ft | 436 kts | 230° |
| 2026-04-14 09:26 | 48.59338 | 15.42862 | 38135 ft | 435 kts | 230° |
| 2026-04-14 09:27 | 48.55531 | 15.35777 | 38133 ft | 434 kts | 230° |
| 2026-04-14 09:27 | 48.51718 | 15.28705 | 38136 ft | 434 kts | 230° |
| 2026-04-14 09:28 | 48.47912 | 15.21646 | 38131 ft | 434 kts | 230° |
| 2026-04-14 09:28 | 48.44096 | 15.14596 | 38121 ft | 434 kts | 230° |
| 2026-04-14 09:29 | 48.40301 | 15.07615 | 38119 ft | 434 kts | 230° |
| 2026-04-14 09:29 | 48.36477 | 15.00589 | 38122 ft | 434 kts | 230° |
| 2026-04-14 09:30 | 48.32658 | 14.93579 | 38119 ft | 433 kts | 230° |
| 2026-04-14 09:30 | 48.28836 | 14.86583 | 38112 ft | 433 kts | 229° |
| 2026-04-14 09:31 | 48.25622 | 14.80735 | 38117 ft | 433 kts | 229° |
| 2026-04-14 09:31 | 48.21812 | 14.73815 | 38116 ft | 433 kts | 229° |
| 2026-04-14 09:32 | 48.17973 | 14.66845 | 38121 ft | 433 kts | 230° |
| 2026-04-14 09:33 | 48.12220 | 14.56405 | 38109 ft | 433 kts | 229° |
| 2026-04-14 09:33 | 48.08367 | 14.49457 | 38107 ft | 434 kts | 229° |
| 2026-04-14 09:34 | 48.04510 | 14.42529 | 38109 ft | 434 kts | 229° |
| 2026-04-14 09:34 | 48.00648 | 14.35601 | 38109 ft | 434 kts | 229° |
| 2026-04-14 09:35 | 47.96778 | 14.28686 | 38110 ft | 434 kts | 229° |
| 2026-04-14 09:35 | 47.92910 | 14.21785 | 38107 ft | 434 kts | 229° |
| 2026-04-14 09:36 | 47.89039 | 14.14893 | 38111 ft | 434 kts | 229° |
| 2026-04-14 09:36 | 47.85159 | 14.08004 | 38107 ft | 434 kts | 229° |
| 2026-04-14 09:37 | 47.81276 | 14.01131 | 38117 ft | 434 kts | 229° |
| 2026-04-14 09:37 | 47.77387 | 13.94261 | 38113 ft | 434 kts | 229° |
| 2026-04-14 09:38 | 47.73496 | 13.87406 | 38114 ft | 434 kts | 229° |
| 2026-04-14 09:38 | 47.69631 | 13.80592 | 38113 ft | 434 kts | 229° |
| 2026-04-14 09:39 | 47.65729 | 13.73757 | 38111 ft | 434 kts | 229° |
| 2026-04-14 09:39 | 47.61815 | 13.66931 | 38114 ft | 434 kts | 229° |
| 2026-04-14 09:40 | 47.57905 | 13.60116 | 38108 ft | 435 kts | 229° |
| 2026-04-14 09:40 | 47.53989 | 13.53295 | 38108 ft | 434 kts | 229° |
| 2026-04-14 09:41 | 47.50067 | 13.46497 | 38103 ft | 435 kts | 228° |
| 2026-04-14 09:41 | 47.46138 | 13.39708 | 38108 ft | 435 kts | 229° |
| 2026-04-14 09:42 | 47.42208 | 13.32909 | 38103 ft | 435 kts | 229° |
| 2026-04-14 09:42 | 47.38277 | 13.26130 | 38102 ft | 435 kts | 229° |
| 2026-04-14 09:43 | 47.34332 | 13.19358 | 38092 ft | 435 kts | 229° |
| 2026-04-14 09:43 | 47.30387 | 13.12600 | 38090 ft | 435 kts | 229° |
| 2026-04-14 09:44 | 47.26436 | 13.05844 | 38074 ft | 435 kts | 229° |
| 2026-04-14 09:44 | 47.22480 | 12.99106 | 38068 ft | 435 kts | 228° |
| 2026-04-14 09:45 | 47.18543 | 12.92416 | 38068 ft | 435 kts | 228° |
| 2026-04-14 09:45 | 47.14588 | 12.85685 | 38055 ft | 435 kts | 228° |
| 2026-04-14 09:46 | 47.10647 | 12.78930 | 38047 ft | 436 kts | 230° |
| 2026-04-14 09:46 | 47.06894 | 12.71926 | 38046 ft | 437 kts | 232° |
| 2026-04-14 09:47 | 47.03230 | 12.64813 | 38047 ft | 438 kts | 232° |
| 2026-04-14 09:47 | 46.99532 | 12.57722 | 38033 ft | 438 kts | 231° |
| 2026-04-14 09:48 | 46.95792 | 12.50691 | 38050 ft | 438 kts | 231° |
| 2026-04-14 09:48 | 46.92033 | 12.43677 | 38051 ft | 438 kts | 231° |
| 2026-04-14 09:49 | 46.88266 | 12.36663 | 38048 ft | 438 kts | 231° |
| 2026-04-14 09:49 | 46.84496 | 12.29647 | 38059 ft | 439 kts | 231° |
| 2026-04-14 09:50 | 46.80714 | 12.22621 | 38067 ft | 440 kts | 231° |
| 2026-04-14 09:50 | 46.76925 | 12.15597 | 37998 ft | 441 kts | 231° |
| 2026-04-14 09:51 | 46.73130 | 12.08583 | 37985 ft | 441 kts | 231° |
| 2026-04-14 09:51 | 46.69325 | 12.01578 | 37990 ft | 441 kts | 230° |
| 2026-04-14 09:52 | 46.65507 | 11.94584 | 37988 ft | 441 kts | 230° |
| 2026-04-14 09:52 | 46.61684 | 11.87588 | 37986 ft | 441 kts | 230° |
| 2026-04-14 09:53 | 46.57870 | 11.80600 | 37984 ft | 441 kts | 230° |
| 2026-04-14 09:53 | 46.54043 | 11.73617 | 37993 ft | 441 kts | 230° |
| 2026-04-14 09:54 | 46.50210 | 11.66662 | 37995 ft | 441 kts | 230° |
| 2026-04-14 09:54 | 46.46372 | 11.59713 | 38007 ft | 441 kts | 230° |
| 2026-04-14 09:55 | 46.42533 | 11.52756 | 38012 ft | 441 kts | 230° |
| 2026-04-14 09:55 | 46.38692 | 11.45827 | 37955 ft | 441 kts | 230° |
| 2026-04-14 09:56 | 46.34847 | 11.38899 | 37960 ft | 441 kts | 230° |
| 2026-04-14 09:56 | 46.31003 | 11.31984 | 37960 ft | 441 kts | 230° |
| 2026-04-14 09:57 | 46.27148 | 11.25079 | 37968 ft | 441 kts | 230° |
| 2026-04-14 09:57 | 46.23283 | 11.18183 | 38034 ft | 442 kts | 230° |
| 2026-04-14 09:58 | 46.19404 | 11.11278 | 38019 ft | 443 kts | 230° |
| 2026-04-14 09:58 | 46.15514 | 11.04370 | 38010 ft | 444 kts | 230° |
| 2026-04-14 09:59 | 46.11643 | 10.97498 | 37998 ft | 444 kts | 230° |
| 2026-04-14 09:59 | 46.07719 | 10.90539 | 37986 ft | 445 kts | 230° |
| 2026-04-14 10:00 | 46.03799 | 10.83639 | 37970 ft | 445 kts | 230° |
| 2026-04-14 10:00 | 45.99898 | 10.76793 | 37960 ft | 446 kts | 230° |
| 2026-04-14 10:00 | 45.97931 | 10.73339 | 37631 ft | 446 kts | 230° |
| 2026-04-14 10:01 | 45.95970 | 10.69892 | 37224 ft | 444 kts | 230° |
| 2026-04-14 10:01 | 45.94024 | 10.66473 | 36830 ft | 441 kts | 230° |
| 2026-04-14 10:01 | 45.92083 | 10.63073 | 36427 ft | 440 kts | 230° |
| 2026-04-14 10:01 | 45.90082 | 10.59759 | 36018 ft | 438 kts | 221° |
| 2026-04-14 10:02 | 45.87782 | 10.56912 | 35520 ft | 436 kts | 219° |
| 2026-04-14 10:02 | 45.85453 | 10.54115 | 35023 ft | 436 kts | 219° |
| 2026-04-14 10:02 | 45.83131 | 10.51341 | 34528 ft | 434 kts | 218° |
| 2026-04-14 10:02 | 45.80810 | 10.48574 | 33986 ft | 434 kts | 218° |
| 2026-04-14 10:03 | 45.78495 | 10.45810 | 33351 ft | 433 kts | 218° |
| 2026-04-14 10:03 | 45.76186 | 10.43033 | 32745 ft | 432 kts | 219° |
| 2026-04-14 10:03 | 45.73908 | 10.40258 | 32253 ft | 428 kts | 219° |
| 2026-04-14 10:03 | 45.71657 | 10.37495 | 31764 ft | 424 kts | 219° |
| 2026-04-14 10:04 | 45.69428 | 10.34748 | 31321 ft | 420 kts | 219° |
| 2026-04-14 10:04 | 45.67222 | 10.32033 | 30857 ft | 417 kts | 219° |
| 2026-04-14 10:04 | 45.65031 | 10.29350 | 30373 ft | 413 kts | 219° |
| 2026-04-14 10:04 | 45.62959 | 10.26823 | 29914 ft | 410 kts | 219° |
| 2026-04-14 10:05 | 45.60798 | 10.24192 | 29437 ft | 406 kts | 219° |
| 2026-04-14 10:05 | 45.58661 | 10.21590 | 29003 ft | 402 kts | 219° |
| 2026-04-14 10:05 | 45.56546 | 10.19019 | 28561 ft | 397 kts | 219° |
| 2026-04-14 10:05 | 45.54450 | 10.16482 | 28140 ft | 392 kts | 219° |
| 2026-04-14 10:06 | 45.52379 | 10.13986 | 27711 ft | 388 kts | 219° |
| 2026-04-14 10:06 | 45.50329 | 10.11521 | 27312 ft | 384 kts | 219° |
| 2026-04-14 10:06 | 45.48294 | 10.09074 | 26908 ft | 381 kts | 219° |
| 2026-04-14 10:06 | 45.46276 | 10.06652 | 26515 ft | 378 kts | 219° |
| 2026-04-14 10:07 | 45.44273 | 10.04249 | 26131 ft | 375 kts | 219° |
| 2026-04-14 10:07 | 45.42283 | 10.01864 | 25751 ft | 373 kts | 219° |
| 2026-04-14 10:07 | 45.40310 | 9.99492 | 25353 ft | 370 kts | 219° |
| 2026-04-14 10:07 | 45.38349 | 9.97130 | 24967 ft | 368 kts | 219° |
| 2026-04-14 10:08 | 45.36406 | 9.94785 | 24575 ft | 365 kts | 219° |
| 2026-04-14 10:08 | 45.34478 | 9.92461 | 24185 ft | 362 kts | 219° |
| 2026-04-14 10:08 | 45.32589 | 9.90190 | 23823 ft | 359 kts | 219° |
| 2026-04-14 10:08 | 45.30680 | 9.87907 | 23433 ft | 357 kts | 219° |
| 2026-04-14 10:09 | 45.28784 | 9.85641 | 22962 ft | 356 kts | 219° |
| 2026-04-14 10:09 | 45.26891 | 9.83378 | 22479 ft | 356 kts | 219° |
| 2026-04-14 10:09 | 45.24999 | 9.81120 | 21989 ft | 355 kts | 219° |
| 2026-04-14 10:09 | 45.23109 | 9.78867 | 21518 ft | 354 kts | 219° |
| 2026-04-14 10:10 | 45.21228 | 9.76626 | 21056 ft | 352 kts | 219° |
| 2026-04-14 10:10 | 45.19354 | 9.74396 | 20595 ft | 351 kts | 219° |
| 2026-04-14 10:10 | 45.17483 | 9.72171 | 20157 ft | 351 kts | 219° |
| 2026-04-14 10:10 | 45.15613 | 9.69947 | 19760 ft | 350 kts | 219° |
| 2026-04-14 10:11 | 45.13753 | 9.67720 | 19362 ft | 349 kts | 219° |
| 2026-04-14 10:11 | 45.11912 | 9.65508 | 18970 ft | 346 kts | 219° |
| 2026-04-14 10:11 | 45.10090 | 9.63316 | 18592 ft | 342 kts | 219° |
| 2026-04-14 10:11 | 45.08287 | 9.61145 | 18200 ft | 339 kts | 219° |
| 2026-04-14 10:12 | 45.06499 | 9.58990 | 17780 ft | 336 kts | 219° |
| 2026-04-14 10:12 | 45.04728 | 9.56848 | 17349 ft | 334 kts | 219° |
| 2026-04-14 10:12 | 45.02965 | 9.54722 | 16931 ft | 331 kts | 219° |
| 2026-04-14 10:12 | 45.01215 | 9.52618 | 16517 ft | 329 kts | 219° |
| 2026-04-14 10:13 | 44.99477 | 9.50526 | 16137 ft | 328 kts | 219° |
| 2026-04-14 10:13 | 44.97744 | 9.48426 | 15739 ft | 329 kts | 219° |
| 2026-04-14 10:13 | 44.95929 | 9.46471 | 15341 ft | 328 kts | 205° |
| 2026-04-14 10:13 | 44.93771 | 9.45519 | 14949 ft | 326 kts | 186° |
| 2026-04-14 10:14 | 44.91515 | 9.45120 | 14560 ft | 328 kts | 184° |
| 2026-04-14 10:14 | 44.89243 | 9.44755 | 14172 ft | 328 kts | 184° |
| 2026-04-14 10:14 | 44.86974 | 9.44399 | 13831 ft | 328 kts | 184° |
| 2026-04-14 10:14 | 44.84716 | 9.44020 | 13586 ft | 324 kts | 184° |
| 2026-04-14 10:15 | 44.82504 | 9.43665 | 13439 ft | 316 kts | 183° |
| 2026-04-14 10:15 | 44.80359 | 9.43312 | 13300 ft | 305 kts | 184° |
| 2026-04-14 10:15 | 44.78289 | 9.42986 | 13168 ft | 294 kts | 184° |
| 2026-04-14 10:15 | 44.76280 | 9.42689 | 12969 ft | 286 kts | 183° |
| 2026-04-14 10:16 | 44.74324 | 9.42377 | 12731 ft | 280 kts | 184° |
| 2026-04-14 10:16 | 44.72436 | 9.42072 | 12496 ft | 274 kts | 184° |
| 2026-04-14 10:16 | 44.70534 | 9.41755 | 12226 ft | 271 kts | 183° |
| 2026-04-14 10:16 | 44.68694 | 9.41411 | 11932 ft | 270 kts | 184° |
| 2026-04-14 10:17 | 44.66836 | 9.41063 | 11653 ft | 269 kts | 184° |
| 2026-04-14 10:17 | 44.64989 | 9.40741 | 11371 ft | 267 kts | 183° |
| 2026-04-14 10:17 | 44.63144 | 9.40401 | 11094 ft | 267 kts | 184° |
| 2026-04-14 10:17 | 44.61307 | 9.40085 | 10798 ft | 265 kts | 184° |
| 2026-04-14 10:18 | 44.57652 | 9.39482 | 10225 ft | 264 kts | 184° |
| 2026-04-14 10:18 | 44.55834 | 9.39167 | 9961 ft | 262 kts | 184° |
| 2026-04-14 10:18 | 44.55063 | 9.39036 | 9847 ft | 261 kts | 183° |
| 2026-04-14 10:19 | 44.53297 | 9.38728 | 9566 ft | 260 kts | 184° |
| 2026-04-14 10:19 | 44.51511 | 9.38410 | 9275 ft | 258 kts | 184° |
| 2026-04-14 10:19 | 44.50330 | 9.38198 | 9083 ft | 258 kts | 184° |
| 2026-04-14 10:19 | 44.48555 | 9.37981 | 8797 ft | 254 kts | 176° |
| 2026-04-14 10:20 | 44.46789 | 9.38024 | 8510 ft | 253 kts | 175° |
| 2026-04-14 10:20 | 44.45036 | 9.38086 | 8219 ft | 251 kts | 174° |
| 2026-04-14 10:20 | 44.43293 | 9.38154 | 7952 ft | 249 kts | 174° |
| 2026-04-14 10:20 | 44.41564 | 9.38222 | 7667 ft | 249 kts | 175° |
| 2026-04-14 10:21 | 44.39837 | 9.38286 | 7443 ft | 249 kts | 174° |
| 2026-04-14 10:21 | 44.38110 | 9.38351 | 7241 ft | 247 kts | 175° |
| 2026-04-14 10:21 | 44.36396 | 9.38409 | 7034 ft | 247 kts | 176° |
| 2026-04-14 10:21 | 44.34690 | 9.38013 | 6844 ft | 253 kts | 197° |
| 2026-04-14 10:22 | 44.33166 | 9.36762 | 6652 ft | 257 kts | 220° |
| 2026-04-14 10:22 | 44.32064 | 9.34792 | 6454 ft | 261 kts | 243° |
| 2026-04-14 10:22 | 44.31550 | 9.32375 | 6259 ft | 261 kts | 266° |
| 2026-04-14 10:22 | 44.31698 | 9.29875 | 6051 ft | 258 kts | 289° |
| 2026-04-14 10:23 | 44.32313 | 9.27536 | 5855 ft | 256 kts | 294° |
| 2026-04-14 10:23 | 44.32947 | 9.25214 | 5695 ft | 256 kts | 294° |
| 2026-04-14 10:23 | 44.33550 | 9.22878 | 5413 ft | 255 kts | 290° |
| 2026-04-14 10:23 | 44.34045 | 9.20503 | 5139 ft | 254 kts | 289° |
| 2026-04-14 10:24 | 44.34513 | 9.18133 | 4892 ft | 250 kts | 289° |
| 2026-04-14 10:24 | 44.34960 | 9.15816 | 4643 ft | 245 kts | 289° |
| 2026-04-14 10:24 | 44.35400 | 9.13546 | 4305 ft | 236 kts | 290° |
| 2026-04-14 10:24 | 44.35819 | 9.11394 | 4002 ft | 224 kts | 290° |
| 2026-04-14 10:25 | 44.36221 | 9.09348 | 3751 ft | 213 kts | 290° |
| 2026-04-14 10:25 | 44.36604 | 9.07403 | 3425 ft | 202 kts | 291° |
| 2026-04-14 10:25 | 44.36971 | 9.05548 | 3123 ft | 194 kts | 291° |
| 2026-04-14 10:25 | 44.37309 | 9.03827 | 2831 ft | 178 kts | 291° |
| 2026-04-14 10:26 | 44.37623 | 9.02227 | 2552 ft | 160 kts | 292° |
| 2026-04-14 10:26 | 44.37903 | 9.00802 | 2328 ft | 147 kts | 293° |
| 2026-04-14 10:26 | 44.38176 | 8.99433 | 2118 ft | 145 kts | 291° |
| 2026-04-14 10:26 | 44.38445 | 8.98083 | 1915 ft | 143 kts | 291° |
| 2026-04-14 10:27 | 44.38705 | 8.96742 | 1715 ft | 143 kts | 291° |
| 2026-04-14 10:27 | 44.38960 | 8.95402 | 1538 ft | 142 kts | 291° |
| 2026-04-14 10:27 | 44.39219 | 8.94070 | 1355 ft | 142 kts | 292° |
| 2026-04-14 10:27 | 44.39531 | 8.92768 | 1158 ft | 141 kts | 293° |
| 2026-04-14 10:28 | 44.39820 | 8.91453 | 909 ft | 143 kts | 289° |
| 2026-04-14 10:28 | 44.40037 | 8.90110 | 737 ft | 141 kts | 287° |
| 2026-04-14 10:28 | 44.40303 | 8.88793 | 556 ft | 141 kts | 289° |
| 2026-04-14 10:28 | 44.40560 | 8.87482 | 354 ft | 138 kts | 288° |
| 2026-04-14 10:29 | 44.40803 | 8.86187 | 145 ft | 138 kts | 289° |
| 2026-04-14 10:29 | 44.41052 | 8.84914 | 21 ft | 126 kts | 287° |
| 2026-04-14 10:29 | 44.41243 | 8.83941 | 21 ft | 79 kts | 285° |
| 2026-04-14 10:29 | 44.41352 | 8.83382 | 22 ft | 41 kts | 285° |
| 2026-04-14 10:30 | 44.41423 | 8.83153 | 21 ft | 19 kts | 314° |
| 2026-04-14 10:30 | 44.41502 | 8.83089 | 21 ft | 8 kts | 2° |
| 2026-04-14 10:30 | 44.41543 | 8.83152 | 21 ft | 10 kts | 79° |
| 2026-04-14 10:30 | 44.41529 | 8.83260 | 20 ft | 12 kts | 105° |
| 2026-04-14 10:31 | 44.41505 | 8.83384 | 20 ft | 14 kts | 105° |
| 2026-04-14 10:31 | 44.41477 | 8.83525 | 20 ft | 16 kts | 105° |
| 2026-04-14 10:31 | 44.41447 | 8.83680 | 20 ft | 17 kts | 105° |
| 2026-04-14 10:31 | 44.41414 | 8.83851 | 22 ft | 19 kts | 105° |
| 2026-04-14 10:32 | 44.41377 | 8.84036 | 20 ft | 21 kts | 105° |
| 2026-04-14 10:32 | 44.41338 | 8.84236 | 20 ft | 22 kts | 105° |
| 2026-04-14 10:32 | 44.41297 | 8.84447 | 21 ft | 23 kts | 105° |
| 2026-04-14 10:32 | 44.41262 | 8.84630 | 20 ft | 15 kts | 105° |
| 2026-04-14 10:33 | 44.41239 | 8.84744 | 23 ft | 12 kts | 106° |
| 2026-04-14 10:33 | 44.41217 | 8.84856 | 20 ft | 9 kts | 105° |
| 2026-04-14 10:33 | 44.41243 | 8.84920 | 20 ft | 9 kts | 17° |
| 2026-04-14 10:33 | 44.41310 | 8.84945 | 20 ft | 11 kts | 15° |
| 2026-04-14 10:34 | 44.41316 | 8.85150 | 20 ft | 10 kts | 105° |
| 2026-04-14 10:34 | 44.41333 | 8.85196 | 21 ft | 6 kts | 19° |
| 2026-04-14 10:34 | 44.41363 | 8.85206 | 20 ft | 2 kts | 14° |
| 2026-04-14 10:35 | 44.41366 | 8.85207 | 20 ft | 0 kts | 14° |